sensor_id;sensor_type;location;lat;lon;timestamp;pressure;altitude;pressure_sealevel;temperature;humidity
33189;BME280;52601;53.070;10.600;2023-07-13T00:01:19;101054.22;;;20.09;100.00
33189;BME280;52601;53.070;10.600;2023-07-13T00:04:06;101062.88;;;19.90;100.00
33189;BME280;52601;53.070;10.600;2023-07-13T00:06:52;101060.81;;;19.94;100.00
33189;BME280;52601;53.070;10.600;2023-07-13T00:09:38;101071.59;;;19.81;100.00
33189;BME280;52601;53.070;10.600;2023-07-13T00:12:35;101081.41;;;19.69;100.00
33189;BME280;52601;53.070;10.600;2023-07-13T00:15:27;101078.66;;;19.60;100.00
33189;BME280;52601;53.070;10.600;2023-07-13T00:18:15;101083.72;;;19.63;100.00
33189;BME280;52601;53.070;10.600;2023-07-13T00:21:01;101084.69;;;19.51;100.00
33189;BME280;52601;53.070;10.600;2023-07-13T00:23:50;101087.84;;;19.56;100.00
33189;BME280;52601;53.070;10.600;2023-07-13T00:26:36;101083.94;;;19.82;100.00
33189;BME280;52601;53.070;10.600;2023-07-13T00:29:21;101085.00;;;19.91;100.00
33189;BME280;52601;53.070;10.600;2023-07-13T00:32:08;101076.19;;;19.79;100.00
33189;BME280;52601;53.070;10.600;2023-07-13T00:34:54;101083.72;;;19.52;100.00
33189;BME280;52601;53.070;10.600;2023-07-13T00:37:40;101072.09;;;19.53;100.00
33189;BME280;52601;53.070;10.600;2023-07-13T00:40:26;101079.38;;;19.40;100.00
33189;BME280;52601;53.070;10.600;2023-07-13T00:43:16;101090.50;;;19.34;100.00
33189;BME280;52601;53.070;10.600;2023-07-13T00:46:13;101091.22;;;19.47;100.00
33189;BME280;52601;53.070;10.600;2023-07-13T00:49:03;101095.06;;;19.21;100.00
33189;BME280;52601;53.070;10.600;2023-07-13T00:51:52;101099.34;;;19.00;100.00
33189;BME280;52601;53.070;10.600;2023-07-13T00:54:43;101107.06;;;18.91;100.00
33189;BME280;52601;53.070;10.600;2023-07-13T00:57:30;101102.41;;;19.06;100.00
33189;BME280;52601;53.070;10.600;2023-07-13T01:00:16;101110.59;;;19.03;100.00
33189;BME280;52601;53.070;10.600;2023-07-13T01:03:03;101109.88;;;19.01;100.00
33189;BME280;52601;53.070;10.600;2023-07-13T01:05:50;101102.81;;;18.78;100.00
33189;BME280;52601;53.070;10.600;2023-07-13T01:08:37;101105.75;;;18.86;100.00
33189;BME280;52601;53.070;10.600;2023-07-13T01:11:22;101113.63;;;18.64;100.00
33189;BME280;52601;53.070;10.600;2023-07-13T01:14:08;101112.91;;;19.08;100.00
33189;BME280;52601;53.070;10.600;2023-07-13T01:16:54;101107.66;;;18.73;100.00
33189;BME280;52601;53.070;10.600;2023-07-13T01:19:44;101121.31;;;18.56;100.00
33189;BME280;52601;53.070;10.600;2023-07-13T01:22:30;101122.56;;;18.39;100.00
33189;BME280;52601;53.070;10.600;2023-07-13T01:25:19;101126.47;;;18.46;100.00
33189;BME280;52601;53.070;10.600;2023-07-13T01:28:06;101112.84;;;18.27;100.00
33189;BME280;52601;53.070;10.600;2023-07-13T01:30:51;101109.28;;;18.39;100.00
33189;BME280;52601;53.070;10.600;2023-07-13T01:33:38;101107.47;;;18.40;100.00
33189;BME280;52601;53.070;10.600;2023-07-13T01:36:24;101108.19;;;18.42;100.00
33189;BME280;52601;53.070;10.600;2023-07-13T01:39:10;101087.72;;;18.44;100.00
33189;BME280;52601;53.070;10.600;2023-07-13T01:41:55;101100.19;;;18.31;100.00
33189;BME280;52601;53.070;10.600;2023-07-13T01:44:41;101102.22;;;18.27;100.00
33189;BME280;52601;53.070;10.600;2023-07-13T01:47:26;101105.09;;;18.24;100.00
33189;BME280;52601;53.070;10.600;2023-07-13T01:50:13;101108.06;;;18.20;100.00
33189;BME280;52601;53.070;10.600;2023-07-13T01:52:59;101112.00;;;18.27;100.00
33189;BME280;52601;53.070;10.600;2023-07-13T01:55:45;101111.91;;;18.16;100.00
33189;BME280;52601;53.070;10.600;2023-07-13T01:58:30;101103.78;;;18.06;100.00
33189;BME280;52601;53.070;10.600;2023-07-13T02:01:16;101097.25;;;17.99;100.00
33189;BME280;52601;53.070;10.600;2023-07-13T02:04:02;101094.06;;;17.94;100.00
33189;BME280;52601;53.070;10.600;2023-07-13T02:06:48;101109.78;;;17.97;100.00
33189;BME280;52601;53.070;10.600;2023-07-13T02:09:33;101103.09;;;17.91;100.00
33189;BME280;52601;53.070;10.600;2023-07-13T02:12:19;101105.19;;;17.99;100.00
33189;BME280;52601;53.070;10.600;2023-07-13T02:15:05;101098.56;;;18.17;100.00
33189;BME280;52601;53.070;10.600;2023-07-13T02:17:51;101099.28;;;17.95;100.00
33189;BME280;52601;53.070;10.600;2023-07-13T02:20:37;101107.47;;;18.16;100.00
33189;BME280;52601;53.070;10.600;2023-07-13T02:23:22;101100.97;;;17.84;100.00
33189;BME280;52601;53.070;10.600;2023-07-13T02:26:08;101096.88;;;18.03;100.00
33189;BME280;52601;53.070;10.600;2023-07-13T02:28:54;101102.47;;;17.88;100.00
33189;BME280;52601;53.070;10.600;2023-07-13T02:31:40;101105.13;;;17.88;100.00
33189;BME280;52601;53.070;10.600;2023-07-13T02:34:25;101104.50;;;17.84;100.00
33189;BME280;52601;53.070;10.600;2023-07-13T02:37:11;101104.66;;;17.94;100.00
33189;BME280;52601;53.070;10.600;2023-07-13T02:39:57;101110.97;;;17.80;100.00
33189;BME280;52601;53.070;10.600;2023-07-13T02:42:42;101106.53;;;17.81;100.00
33189;BME280;52601;53.070;10.600;2023-07-13T02:45:28;101109.28;;;17.79;100.00
33189;BME280;52601;53.070;10.600;2023-07-13T02:48:14;101108.84;;;17.85;100.00
33189;BME280;52601;53.070;10.600;2023-07-13T02:50:59;101111.53;;;17.73;100.00
33189;BME280;52601;53.070;10.600;2023-07-13T02:53:45;101106.03;;;17.63;100.00
33189;BME280;52601;53.070;10.600;2023-07-13T02:56:31;101091.94;;;18.23;100.00
33189;BME280;52601;53.070;10.600;2023-07-13T02:59:17;101104.19;;;17.76;100.00
33189;BME280;52601;53.070;10.600;2023-07-13T03:02:03;101094.72;;;17.85;100.00
33189;BME280;52601;53.070;10.600;2023-07-13T03:04:49;101094.59;;;17.99;100.00
33189;BME280;52601;53.070;10.600;2023-07-13T03:07:34;101085.59;;;17.89;100.00
33189;BME280;52601;53.070;10.600;2023-07-13T03:10:20;101094.84;;;17.83;100.00
33189;BME280;52601;53.070;10.600;2023-07-13T03:13:06;101088.38;;;17.87;100.00
33189;BME280;52601;53.070;10.600;2023-07-13T03:15:51;101085.63;;;17.76;100.00
33189;BME280;52601;53.070;10.600;2023-07-13T03:18:37;101093.56;;;17.89;100.00
33189;BME280;52601;53.070;10.600;2023-07-13T03:21:23;101104.16;;;17.89;100.00
33189;BME280;52601;53.070;10.600;2023-07-13T03:24:08;101112.69;;;17.69;100.00
33189;BME280;52601;53.070;10.600;2023-07-13T03:26:54;101123.94;;;17.47;100.00
33189;BME280;52601;53.070;10.600;2023-07-13T03:29:40;101120.25;;;17.37;100.00
33189;BME280;52601;53.070;10.600;2023-07-13T03:32:26;101129.34;;;17.20;100.00
33189;BME280;52601;53.070;10.600;2023-07-13T03:35:12;101142.50;;;17.35;100.00
33189;BME280;52601;53.070;10.600;2023-07-13T03:37:57;101139.56;;;17.14;100.00
33189;BME280;52601;53.070;10.600;2023-07-13T03:40:44;101136.69;;;17.17;100.00
33189;BME280;52601;53.070;10.600;2023-07-13T03:43:29;101146.31;;;17.31;100.00
33189;BME280;52601;53.070;10.600;2023-07-13T03:46:16;101143.25;;;17.37;100.00
33189;BME280;52601;53.070;10.600;2023-07-13T03:49:03;101147.75;;;17.61;100.00
33189;BME280;52601;53.070;10.600;2023-07-13T03:51:48;101148.47;;;17.51;100.00
33189;BME280;52601;53.070;10.600;2023-07-13T03:54:37;101136.50;;;17.58;100.00
33189;BME280;52601;53.070;10.600;2023-07-13T03:57:23;101140.09;;;17.69;100.00
33189;BME280;52601;53.070;10.600;2023-07-13T04:00:09;101145.78;;;17.76;100.00
33189;BME280;52601;53.070;10.600;2023-07-13T04:02:56;101148.13;;;17.80;100.00
33189;BME280;52601;53.070;10.600;2023-07-13T04:05:41;101145.59;;;17.79;100.00
33189;BME280;52601;53.070;10.600;2023-07-13T04:08:28;101155.03;;;17.83;100.00
33189;BME280;52601;53.070;10.600;2023-07-13T04:11:14;101146.00;;;17.85;100.00
33189;BME280;52601;53.070;10.600;2023-07-13T04:13:59;101151.31;;;17.85;100.00
33189;BME280;52601;53.070;10.600;2023-07-13T04:16:45;101139.22;;;17.69;100.00
33189;BME280;52601;53.070;10.600;2023-07-13T04:19:31;101150.16;;;17.64;100.00
33189;BME280;52601;53.070;10.600;2023-07-13T04:22:16;101147.38;;;17.66;100.00
33189;BME280;52601;53.070;10.600;2023-07-13T04:25:02;101148.78;;;17.59;100.00
33189;BME280;52601;53.070;10.600;2023-07-13T04:27:49;101153.00;;;17.74;100.00
33189;BME280;52601;53.070;10.600;2023-07-13T04:30:35;101151.81;;;17.78;100.00
33189;BME280;52601;53.070;10.600;2023-07-13T04:33:20;101147.81;;;17.85;100.00
33189;BME280;52601;53.070;10.600;2023-07-13T04:36:08;101129.28;;;18.32;100.00
33189;BME280;52601;53.070;10.600;2023-07-13T04:38:55;101134.75;;;18.18;100.00
33189;BME280;52601;53.070;10.600;2023-07-13T04:41:41;101128.81;;;18.51;100.00
33189;BME280;52601;53.070;10.600;2023-07-13T04:44:26;101119.25;;;18.48;100.00
33189;BME280;52601;53.070;10.600;2023-07-13T04:47:12;101131.09;;;18.55;100.00
33189;BME280;52601;53.070;10.600;2023-07-13T04:49:58;101131.16;;;18.66;100.00
33189;BME280;52601;53.070;10.600;2023-07-13T04:52:43;101126.69;;;18.67;100.00
33189;BME280;52601;53.070;10.600;2023-07-13T04:55:29;101121.28;;;18.79;100.00
33189;BME280;52601;53.070;10.600;2023-07-13T04:58:16;101118.91;;;18.87;100.00
33189;BME280;52601;53.070;10.600;2023-07-13T05:01:03;101113.47;;;18.89;100.00
33189;BME280;52601;53.070;10.600;2023-07-13T05:03:49;101113.72;;;18.97;100.00
33189;BME280;52601;53.070;10.600;2023-07-13T05:06:35;101109.19;;;19.21;100.00
33189;BME280;52601;53.070;10.600;2023-07-13T05:09:21;101101.94;;;19.23;100.00
33189;BME280;52601;53.070;10.600;2023-07-13T05:12:08;101098.00;;;19.40;100.00
33189;BME280;52601;53.070;10.600;2023-07-13T05:14:55;101110.31;;;19.63;100.00
33189;BME280;52601;53.070;10.600;2023-07-13T05:17:41;101099.44;;;19.66;100.00
33189;BME280;52601;53.070;10.600;2023-07-13T05:20:26;101096.75;;;19.88;100.00
33189;BME280;52601;53.070;10.600;2023-07-13T05:23:12;101090.03;;;20.27;100.00
33189;BME280;52601;53.070;10.600;2023-07-13T05:25:57;101072.63;;;21.56;100.00
33189;BME280;52601;53.070;10.600;2023-07-13T05:28:44;101042.66;;;22.97;100.00
33189;BME280;52601;53.070;10.600;2023-07-13T05:31:29;101025.25;;;24.55;100.00
33189;BME280;52601;53.070;10.600;2023-07-13T05:34:15;101000.91;;;25.59;100.00
33189;BME280;52601;53.070;10.600;2023-07-13T05:37:00;101002.16;;;25.89;100.00
33189;BME280;52601;53.070;10.600;2023-07-13T05:39:46;100995.16;;;26.28;100.00
33189;BME280;52601;53.070;10.600;2023-07-13T05:42:32;100991.97;;;26.40;100.00
33189;BME280;52601;53.070;10.600;2023-07-13T05:45:17;100994.50;;;26.34;100.00
33189;BME280;52601;53.070;10.600;2023-07-13T05:48:03;101007.28;;;26.48;100.00
33189;BME280;52601;53.070;10.600;2023-07-13T05:50:49;101004.22;;;26.51;99.00
33189;BME280;52601;53.070;10.600;2023-07-13T05:53:35;101014.81;;;26.93;96.73
33189;BME280;52601;53.070;10.600;2023-07-13T05:56:21;101009.13;;;27.26;95.88
33189;BME280;52601;53.070;10.600;2023-07-13T05:59:06;101011.00;;;27.73;91.16
33189;BME280;52601;53.070;10.600;2023-07-13T06:01:52;101010.66;;;27.76;89.47
33189;BME280;52601;53.070;10.600;2023-07-13T06:04:38;101011.56;;;27.91;90.06
33189;BME280;52601;53.070;10.600;2023-07-13T06:07:23;101016.16;;;28.58;84.25
33189;BME280;52601;53.070;10.600;2023-07-13T06:10:09;101019.03;;;29.23;81.33
33189;BME280;52601;53.070;10.600;2023-07-13T06:12:55;101022.03;;;29.14;80.48
33189;BME280;52601;53.070;10.600;2023-07-13T06:15:40;101014.06;;;28.98;84.03
33189;BME280;52601;53.070;10.600;2023-07-13T06:18:26;101019.22;;;29.36;78.60
33189;BME280;52601;53.070;10.600;2023-07-13T06:21:15;101023.09;;;29.63;77.47
33189;BME280;52601;53.070;10.600;2023-07-13T06:24:01;101021.88;;;29.80;75.22
33189;BME280;52601;53.070;10.600;2023-07-13T06:26:46;101013.69;;;30.79;72.47
33189;BME280;52601;53.070;10.600;2023-07-13T06:29:32;101012.56;;;32.50;63.73
33189;BME280;52601;53.070;10.600;2023-07-13T06:32:18;101009.59;;;33.03;59.01
33189;BME280;52601;53.070;10.600;2023-07-13T06:35:03;101021.94;;;33.13;57.88
33189;BME280;52601;53.070;10.600;2023-07-13T06:37:49;101012.78;;;33.64;56.05
33189;BME280;52601;53.070;10.600;2023-07-13T06:40:35;101008.00;;;34.04;55.25
33189;BME280;52601;53.070;10.600;2023-07-13T06:43:20;101012.66;;;33.91;55.79
33189;BME280;52601;53.070;10.600;2023-07-13T06:46:06;101025.16;;;34.36;52.72
33189;BME280;52601;53.070;10.600;2023-07-13T06:48:52;101018.19;;;34.71;51.62
33189;BME280;52601;53.070;10.600;2023-07-13T06:51:37;101031.06;;;35.49;49.91
33189;BME280;52601;53.070;10.600;2023-07-13T06:54:23;101030.75;;;34.16;51.07
33189;BME280;52601;53.070;10.600;2023-07-13T06:57:08;101028.22;;;34.46;50.80
33189;BME280;52601;53.070;10.600;2023-07-13T06:59:54;101032.28;;;35.11;48.78
33189;BME280;52601;53.070;10.600;2023-07-13T07:02:39;101038.75;;;35.71;48.22
33189;BME280;52601;53.070;10.600;2023-07-13T07:05:25;101034.97;;;35.17;50.29
33189;BME280;52601;53.070;10.600;2023-07-13T07:08:11;101033.09;;;36.02;46.34
33189;BME280;52601;53.070;10.600;2023-07-13T07:10:56;101035.09;;;35.77;45.13
33189;BME280;52601;53.070;10.600;2023-07-13T07:13:42;101028.53;;;36.78;45.26
33189;BME280;52601;53.070;10.600;2023-07-13T07:16:28;101043.91;;;37.77;41.98
33189;BME280;52601;53.070;10.600;2023-07-13T07:19:13;101043.69;;;36.10;42.27
33189;BME280;52601;53.070;10.600;2023-07-13T07:21:59;101044.06;;;36.55;43.50
33189;BME280;52601;53.070;10.600;2023-07-13T07:24:44;101040.19;;;36.97;41.49
33189;BME280;52601;53.070;10.600;2023-07-13T07:27:30;101047.38;;;36.15;44.88
33189;BME280;52601;53.070;10.600;2023-07-13T07:30:18;101035.56;;;35.19;43.71
33189;BME280;52601;53.070;10.600;2023-07-13T07:33:07;101022.03;;;35.49;45.30
33189;BME280;52601;53.070;10.600;2023-07-13T07:35:52;101030.53;;;32.64;52.09
33189;BME280;52601;53.070;10.600;2023-07-13T07:38:41;101028.97;;;33.40;51.13
33189;BME280;52601;53.070;10.600;2023-07-13T07:41:27;101027.59;;;35.18;45.83
33189;BME280;52601;53.070;10.600;2023-07-13T07:44:15;101038.25;;;35.92;44.15
33189;BME280;52601;53.070;10.600;2023-07-13T07:47:01;101035.50;;;36.10;42.38
33189;BME280;52601;53.070;10.600;2023-07-13T07:49:46;101025.75;;;36.44;41.57
33189;BME280;52601;53.070;10.600;2023-07-13T07:52:32;101031.16;;;35.36;44.07
33189;BME280;52601;53.070;10.600;2023-07-13T07:55:17;101039.22;;;34.02;46.84
33189;BME280;52601;53.070;10.600;2023-07-13T07:58:06;101036.59;;;32.46;52.53
33189;BME280;52601;53.070;10.600;2023-07-13T08:01:11;101037.38;;;33.25;50.85
33189;BME280;52601;53.070;10.600;2023-07-13T08:04:00;101043.44;;;34.29;47.30
33189;BME280;52601;53.070;10.600;2023-07-13T08:06:48;101037.38;;;33.89;46.55
33189;BME280;52601;53.070;10.600;2023-07-13T08:09:34;101038.28;;;33.76;46.67
33189;BME280;52601;53.070;10.600;2023-07-13T08:12:20;101039.94;;;33.07;48.83
33189;BME280;52601;53.070;10.600;2023-07-13T08:15:25;101035.72;;;35.61;42.26
33189;BME280;52601;53.070;10.600;2023-07-13T08:18:11;101033.06;;;34.13;44.52
33189;BME280;52601;53.070;10.600;2023-07-13T08:20:57;101022.00;;;34.08;44.91
33189;BME280;52601;53.070;10.600;2023-07-13T08:23:44;101042.41;;;33.15;48.81
33189;BME280;52601;53.070;10.600;2023-07-13T08:26:29;101040.22;;;30.84;55.77
33189;BME280;52601;53.070;10.600;2023-07-13T08:29:15;101030.69;;;33.28;50.17
33189;BME280;52601;53.070;10.600;2023-07-13T08:32:01;101038.53;;;33.68;49.08
33189;BME280;52601;53.070;10.600;2023-07-13T08:34:47;101038.84;;;33.34;49.07
33189;BME280;52601;53.070;10.600;2023-07-13T08:37:32;101040.81;;;31.88;53.07
33189;BME280;52601;53.070;10.600;2023-07-13T08:40:19;101032.03;;;34.38;49.53
33189;BME280;52601;53.070;10.600;2023-07-13T08:43:15;101037.38;;;34.58;46.04
33189;BME280;52601;53.070;10.600;2023-07-13T08:46:32;101029.63;;;35.04;47.19
33189;BME280;52601;53.070;10.600;2023-07-13T08:49:22;101042.38;;;34.61;43.72
33189;BME280;52601;53.070;10.600;2023-07-13T08:52:17;101041.38;;;31.02;52.37
33189;BME280;52601;53.070;10.600;2023-07-13T08:55:24;101036.03;;;31.09;53.58
33189;BME280;52601;53.070;10.600;2023-07-13T08:58:13;101039.78;;;31.89;54.25
33189;BME280;52601;53.070;10.600;2023-07-13T09:04:14;101026.47;;;36.85;40.79
33189;BME280;52601;53.070;10.600;2023-07-13T09:07:11;101030.06;;;36.74;39.66
33189;BME280;52601;53.070;10.600;2023-07-13T09:10:14;101039.22;;;34.02;44.45
33189;BME280;52601;53.070;10.600;2023-07-13T09:13:24;101034.28;;;33.09;48.46
33189;BME280;52601;53.070;10.600;2023-07-13T09:16:13;101022.97;;;34.20;45.33
33189;BME280;52601;53.070;10.600;2023-07-13T09:19:02;101030.88;;;36.63;41.12
33189;BME280;52601;53.070;10.600;2023-07-13T09:21:51;101029.97;;;37.67;37.11
33189;BME280;52601;53.070;10.600;2023-07-13T09:24:49;101032.28;;;37.47;35.43
33189;BME280;52601;53.070;10.600;2023-07-13T09:27:40;101030.34;;;34.93;41.67
33189;BME280;52601;53.070;10.600;2023-07-13T09:30:34;101031.91;;;34.27;44.56
33189;BME280;52601;53.070;10.600;2023-07-13T09:33:23;101034.13;;;37.06;37.62
33189;BME280;52601;53.070;10.600;2023-07-13T09:36:22;101030.66;;;36.76;37.55
33189;BME280;52601;53.070;10.600;2023-07-13T09:39:20;101025.25;;;39.18;36.02
33189;BME280;52601;53.070;10.600;2023-07-13T09:42:18;101033.94;;;40.23;32.65
33189;BME280;52601;53.070;10.600;2023-07-13T09:45:05;101039.63;;;35.10;40.39
33189;BME280;52601;53.070;10.600;2023-07-13T09:48:10;101029.00;;;35.02;43.83
33189;BME280;52601;53.070;10.600;2023-07-13T09:51:14;101033.81;;;37.66;38.81
33189;BME280;52601;53.070;10.600;2023-07-13T09:54:02;101030.13;;;37.49;37.08
33189;BME280;52601;53.070;10.600;2023-07-13T09:56:54;101025.44;;;36.22;37.86
33189;BME280;52601;53.070;10.600;2023-07-13T09:59:43;101025.78;;;37.76;36.99
33189;BME280;52601;53.070;10.600;2023-07-13T10:02:34;101016.84;;;39.25;35.23
33189;BME280;52601;53.070;10.600;2023-07-13T10:05:20;101012.47;;;38.24;36.15
33189;BME280;52601;53.070;10.600;2023-07-13T10:08:28;101016.53;;;37.02;37.55
33189;BME280;52601;53.070;10.600;2023-07-13T10:11:20;101024.19;;;37.52;36.63
33189;BME280;52601;53.070;10.600;2023-07-13T10:14:25;101004.91;;;37.58;36.71
33189;BME280;52601;53.070;10.600;2023-07-13T10:17:13;101007.31;;;39.32;34.17
33189;BME280;52601;53.070;10.600;2023-07-13T10:20:02;101005.69;;;38.60;35.08
33189;BME280;52601;53.070;10.600;2023-07-13T10:22:54;101021.59;;;36.41;37.58
33189;BME280;52601;53.070;10.600;2023-07-13T10:25:43;101017.53;;;33.82;43.38
33189;BME280;52601;53.070;10.600;2023-07-13T10:28:36;101018.00;;;32.63;48.06
33189;BME280;52601;53.070;10.600;2023-07-13T10:31:23;101032.84;;;31.80;50.55
33189;BME280;52601;53.070;10.600;2023-07-13T10:34:11;101027.81;;;31.71;51.95
33189;BME280;52601;53.070;10.600;2023-07-13T10:36:58;101027.19;;;34.40;46.65
33189;BME280;52601;53.070;10.600;2023-07-13T10:39:44;101028.72;;;35.83;41.28
33189;BME280;52601;53.070;10.600;2023-07-13T10:42:35;101020.66;;;36.70;37.39
33189;BME280;52601;53.070;10.600;2023-07-13T10:45:23;101036.72;;;34.00;43.50
33189;BME280;52601;53.070;10.600;2023-07-13T10:48:12;101038.28;;;31.80;49.64
33189;BME280;52601;53.070;10.600;2023-07-13T10:51:01;101039.19;;;31.47;52.59
33189;BME280;52601;53.070;10.600;2023-07-13T10:54:14;101033.56;;;31.14;53.64
33189;BME280;52601;53.070;10.600;2023-07-13T10:57:18;101030.56;;;32.77;50.26
33189;BME280;52601;53.070;10.600;2023-07-13T11:00:16;101029.53;;;33.61;45.79
33189;BME280;52601;53.070;10.600;2023-07-13T11:03:03;101032.34;;;31.57;50.06
33189;BME280;52601;53.070;10.600;2023-07-13T11:05:51;101034.13;;;30.82;51.15
33189;BME280;52601;53.070;10.600;2023-07-13T11:08:58;101033.22;;;30.68;53.36
33189;BME280;52601;53.070;10.600;2023-07-13T11:11:45;101030.50;;;31.64;53.06
33189;BME280;52601;53.070;10.600;2023-07-13T11:14:43;101024.38;;;33.91;45.83
33189;BME280;52601;53.070;10.600;2023-07-13T11:17:36;101020.03;;;33.77;44.73
33189;BME280;52601;53.070;10.600;2023-07-13T11:20:24;101031.28;;;32.12;49.82
33189;BME280;52601;53.070;10.600;2023-07-13T11:23:20;101026.75;;;31.31;53.54
33189;BME280;52601;53.070;10.600;2023-07-13T11:27:09;101030.97;;;33.70;46.74
33189;BME280;52601;53.070;10.600;2023-07-13T11:29:42;101024.00;;;33.24;46.42
33189;BME280;52601;53.070;10.600;2023-07-13T11:32:31;101024.19;;;34.55;44.62
33189;BME280;52601;53.070;10.600;2023-07-13T11:35:23;101018.31;;;37.08;39.47
33189;BME280;52601;53.070;10.600;2023-07-13T11:38:38;101017.56;;;38.82;33.87
33189;BME280;52601;53.070;10.600;2023-07-13T11:41:35;101014.88;;;37.92;34.10
33189;BME280;52601;53.070;10.600;2023-07-13T11:44:25;101023.81;;;34.45;41.56
33189;BME280;52601;53.070;10.600;2023-07-13T11:47:16;101017.38;;;32.54;46.42
33189;BME280;52601;53.070;10.600;2023-07-13T11:50:05;101017.72;;;31.99;46.95
33189;BME280;52601;53.070;10.600;2023-07-13T11:52:53;101023.31;;;34.30;41.54
33189;BME280;52601;53.070;10.600;2023-07-13T11:55:39;101016.38;;;36.21;35.67
33189;BME280;52601;53.070;10.600;2023-07-13T11:58:26;101016.38;;;37.72;32.38
33189;BME280;52601;53.070;10.600;2023-07-13T12:01:20;101009.16;;;38.22;31.29
33189;BME280;52601;53.070;10.600;2023-07-13T12:04:14;101010.00;;;38.56;30.75
33189;BME280;52601;53.070;10.600;2023-07-13T12:07:15;101006.69;;;38.54;29.94
33189;BME280;52601;53.070;10.600;2023-07-13T12:10:03;101008.50;;;38.48;30.53
33189;BME280;52601;53.070;10.600;2023-07-13T12:15:45;101002.00;;;38.54;30.29
33189;BME280;52601;53.070;10.600;2023-07-13T12:18:32;101013.31;;;38.91;31.87
33189;BME280;52601;53.070;10.600;2023-07-13T12:21:23;101004.53;;;37.55;31.86
33189;BME280;52601;53.070;10.600;2023-07-13T12:24:17;101008.09;;;38.56;30.49
33189;BME280;52601;53.070;10.600;2023-07-13T12:27:04;101014.22;;;38.30;29.02
33189;BME280;52601;53.070;10.600;2023-07-13T12:29:53;100994.38;;;38.56;28.91
33189;BME280;52601;53.070;10.600;2023-07-13T12:32:42;101005.94;;;38.42;28.86
33189;BME280;52601;53.070;10.600;2023-07-13T12:35:29;100997.00;;;39.01;29.10
33189;BME280;52601;53.070;10.600;2023-07-13T12:38:16;100999.38;;;39.52;28.03
33189;BME280;52601;53.070;10.600;2023-07-13T12:41:02;101005.09;;;39.51;29.74
33189;BME280;52601;53.070;10.600;2023-07-13T12:43:48;100992.44;;;38.90;28.29
33189;BME280;52601;53.070;10.600;2023-07-13T12:46:34;100992.22;;;38.92;28.90
33189;BME280;52601;53.070;10.600;2023-07-13T12:49:24;100995.47;;;36.68;30.04
33189;BME280;52601;53.070;10.600;2023-07-13T12:52:15;101007.16;;;36.34;31.99
33189;BME280;52601;53.070;10.600;2023-07-13T12:55:06;101012.97;;;35.67;33.09
33189;BME280;52601;53.070;10.600;2023-07-13T12:58:03;101012.00;;;34.57;35.83
33189;BME280;52601;53.070;10.600;2023-07-13T13:00:50;101016.31;;;33.71;38.38
33189;BME280;52601;53.070;10.600;2023-07-13T13:03:45;101008.13;;;33.21;39.63
33189;BME280;52601;53.070;10.600;2023-07-13T13:06:32;101012.34;;;33.03;41.57
33189;BME280;52601;53.070;10.600;2023-07-13T13:09:18;101033.69;;;32.61;40.81
33189;BME280;52601;53.070;10.600;2023-07-13T13:12:06;101027.59;;;32.72;39.79
33189;BME280;52601;53.070;10.600;2023-07-13T13:14:52;101068.22;;;32.00;43.64
33189;BME280;52601;53.070;10.600;2023-07-13T13:17:38;101097.25;;;29.83;52.51
33189;BME280;52601;53.070;10.600;2023-07-13T13:20:25;101116.28;;;28.18;59.59
33189;BME280;52601;53.070;10.600;2023-07-13T13:23:15;101098.28;;;27.72;64.50
33189;BME280;52601;53.070;10.600;2023-07-13T13:26:05;101126.03;;;27.01;68.16
33189;BME280;52601;53.070;10.600;2023-07-13T13:28:53;101136.41;;;26.40;73.26
33189;BME280;52601;53.070;10.600;2023-07-13T13:31:39;101136.09;;;26.01;94.84
33189;BME280;52601;53.070;10.600;2023-07-13T13:34:25;101181.97;;;24.70;100.00
33189;BME280;52601;53.070;10.600;2023-07-13T13:37:22;101157.41;;;23.75;100.00
33189;BME280;52601;53.070;10.600;2023-07-13T13:40:20;101156.97;;;24.52;100.00
33189;BME280;52601;53.070;10.600;2023-07-13T13:43:17;101166.81;;;25.91;100.00
33189;BME280;52601;53.070;10.600;2023-07-13T13:46:16;101150.59;;;28.32;100.00
33189;BME280;52601;53.070;10.600;2023-07-13T13:49:02;101145.25;;;29.37;96.30
33189;BME280;52601;53.070;10.600;2023-07-13T13:51:48;101151.19;;;28.95;88.01
33189;BME280;52601;53.070;10.600;2023-07-13T13:54:33;101153.53;;;30.38;82.69
33189;BME280;52601;53.070;10.600;2023-07-13T13:57:19;101141.72;;;31.36;68.17
33189;BME280;52601;53.070;10.600;2023-07-13T14:00:05;101159.72;;;31.16;63.14
33189;BME280;52601;53.070;10.600;2023-07-13T14:02:51;101182.75;;;30.28;66.84
33189;BME280;52601;53.070;10.600;2023-07-13T14:05:38;101189.06;;;29.33;74.18
33189;BME280;52601;53.070;10.600;2023-07-13T14:08:26;101196.81;;;27.82;77.65
33189;BME280;52601;53.070;10.600;2023-07-13T14:11:13;101181.94;;;27.07;83.68
33189;BME280;52601;53.070;10.600;2023-07-13T14:14:00;101200.28;;;27.20;87.97
33189;BME280;52601;53.070;10.600;2023-07-13T14:16:46;101198.09;;;26.99;89.01
33189;BME280;52601;53.070;10.600;2023-07-13T14:19:38;101203.28;;;27.25;85.44
33189;BME280;52601;53.070;10.600;2023-07-13T14:22:24;101204.47;;;27.55;87.54
33189;BME280;52601;53.070;10.600;2023-07-13T14:25:12;101210.63;;;27.87;81.84
33189;BME280;52601;53.070;10.600;2023-07-13T14:27:58;101223.00;;;27.09;87.93
33189;BME280;52601;53.070;10.600;2023-07-13T14:30:46;101224.50;;;26.88;92.01